createdAt,value
2022-09-28T00:01:57.584Z,2.78
2022-09-28T00:04:43.526Z,3.33
2022-09-28T00:07:29.828Z,3.10
2022-09-28T00:10:16.035Z,2.92
2022-09-28T00:13:03.051Z,3.63
2022-09-28T00:16:08.581Z,3.38
2022-09-28T00:18:55.073Z,3.75
2022-09-28T00:21:42.299Z,3.72
2022-09-28T00:24:29.723Z,4.93
2022-09-28T00:27:15.707Z,3.55
2022-09-28T00:30:01.991Z,3.70
2022-09-28T00:32:48.281Z,3.28
2022-09-28T00:35:34.186Z,3.53
2022-09-28T00:38:20.293Z,3.08
2022-09-28T00:41:06.254Z,3.38
2022-09-28T00:43:53.635Z,3.50
2022-09-28T00:46:40.400Z,3.35
2022-09-28T00:49:35.497Z,3.25
2022-09-28T00:52:45.895Z,3.10
2022-09-28T00:55:39.012Z,2.28
2022-09-28T00:58:30.449Z,2.70
2022-09-28T01:01:17.227Z,3.20
2022-09-28T01:04:05.735Z,3.38
2022-09-28T01:06:52.852Z,2.92
2022-09-28T01:09:40.601Z,2.72
2022-09-28T01:12:29.631Z,3.03
2022-09-28T01:15:16.112Z,3.08
2022-09-28T01:18:16.256Z,2.60
2022-09-28T01:21:18.302Z,2.45
2022-09-28T01:24:14.846Z,2.40
2022-09-28T01:27:14.836Z,2.35
2022-09-28T01:30:18.132Z,2.58
2022-09-28T01:33:08.799Z,2.20
2022-09-28T01:36:06.220Z,2.72
2022-09-28T01:39:14.936Z,2.75
2022-09-28T01:42:11.421Z,2.50
2022-09-28T01:45:04.561Z,2.30
2022-09-28T01:47:51.840Z,2.90
2022-09-28T01:50:41.211Z,2.33
2022-09-28T01:53:35.954Z,2.80
2022-09-28T01:56:38.609Z,2.58
2022-09-28T01:59:28.629Z,4.28
2022-09-28T02:02:25.809Z,2.40
2022-09-28T02:05:18.443Z,2.70
2022-09-28T02:08:11.017Z,2.65
2022-09-28T02:11:16.227Z,2.40
2022-09-28T02:14:06.822Z,2.50
2022-09-28T02:16:55.068Z,2.60
2022-09-28T02:19:46.339Z,3.13
2022-09-28T02:22:40.596Z,3.00
2022-09-28T02:28:17.280Z,2.80
2022-09-28T02:31:03.689Z,2.85
2022-09-28T02:33:51.504Z,2.25
2022-09-28T02:36:38.121Z,2.17
2022-09-28T02:39:24.745Z,2.50
2022-09-28T02:42:34.452Z,2.38
2022-09-28T02:45:59.754Z,2.60
2022-09-28T02:49:21.423Z,2.38
2022-09-28T02:52:18.839Z,2.30
2022-09-28T02:55:25.451Z,2.63
2022-09-28T02:58:14.460Z,2.80
2022-09-28T03:01:18.322Z,2.33
2022-09-28T03:04:19.171Z,2.50
2022-09-28T03:07:13.281Z,2.50
2022-09-28T03:10:10.099Z,2.83
2022-09-28T03:12:57.646Z,3.30
2022-09-28T03:15:48.518Z,3.63
2022-09-28T03:18:36.240Z,3.40
2022-09-28T03:21:22.153Z,2.50
2022-09-28T03:24:10.554Z,2.80
2022-09-28T03:26:57.120Z,2.90
2022-09-28T03:29:43.392Z,2.97
2022-09-28T03:32:29.655Z,4.53
2022-09-28T03:35:16.014Z,3.17
2022-09-28T03:38:02.570Z,2.67
2022-09-28T03:41:00.563Z,2.63
2022-09-28T03:43:52.187Z,4.28
2022-09-28T03:46:38.828Z,2.97
2022-09-28T03:49:27.685Z,2.75
2022-09-28T03:52:14.460Z,2.75
2022-09-28T03:55:00.354Z,2.95
2022-09-28T03:57:54.586Z,2.72
2022-09-28T04:00:41.177Z,3.15
2022-09-28T04:03:28.209Z,2.22
2022-09-28T04:06:14.581Z,2.80
2022-09-28T04:09:00.545Z,2.83
2022-09-28T04:12:02.751Z,2.80
2022-09-28T04:14:50.119Z,2.97
2022-09-28T04:17:40.143Z,2.88
2022-09-28T04:20:33.314Z,2.75
2022-09-28T04:23:22.986Z,3.03
2022-09-28T04:26:22.811Z,2.97
2022-09-28T04:29:19.274Z,2.83
2022-09-28T04:32:16.411Z,3.70
2022-09-28T04:35:02.247Z,2.95
2022-09-28T04:37:51.792Z,4.00
2022-09-28T04:40:37.927Z,2.63
2022-09-28T04:43:24.962Z,3.17
2022-09-28T04:46:11.154Z,3.10
2022-09-28T04:49:06.254Z,3.17
2022-09-28T04:52:17.225Z,3.72
2022-09-28T04:55:06.642Z,2.75
2022-09-28T04:57:54.492Z,3.92
2022-09-28T05:00:40.592Z,2.60
2022-09-28T05:03:51.024Z,4.40
2022-09-28T05:07:06.172Z,3.28
2022-09-28T05:09:55.198Z,3.38
2022-09-28T05:12:41.211Z,3.13
2022-09-28T05:15:27.562Z,4.18
2022-09-28T05:18:14.123Z,2.92
2022-09-28T05:21:13.477Z,2.88
2022-09-28T05:23:59.872Z,3.17
2022-09-28T05:26:45.864Z,4.32
2022-09-28T05:29:32.599Z,4.60
2022-09-28T05:32:44.271Z,2.45
2022-09-28T05:35:37.548Z,3.00
2022-09-28T05:38:24.508Z,2.80
2022-09-28T05:41:10.798Z,3.65
2022-09-28T05:43:58.948Z,3.47
2022-09-28T05:46:45.114Z,2.88
2022-09-28T05:49:32.514Z,4.25
2022-09-28T05:52:20.478Z,4.15
2022-09-28T05:55:07.759Z,3.95
2022-09-28T05:57:57.381Z,4.03
2022-09-28T06:00:43.996Z,3.97
2022-09-28T06:03:30.004Z,4.60
2022-09-28T06:06:15.871Z,3.33
2022-09-28T06:09:03.307Z,3.05
2022-09-28T06:12:02.419Z,3.05
2022-09-28T06:15:02.242Z,3.50
2022-09-28T06:17:48.380Z,4.05
2022-09-28T06:20:53.368Z,3.75
2022-09-28T06:23:49.626Z,4.47
2022-09-28T06:26:37.266Z,4.10
2022-09-28T06:29:24.227Z,4.32
2022-09-28T06:32:13.857Z,4.22
2022-09-28T06:35:01.900Z,4.30
2022-09-28T06:37:48.663Z,4.25
2022-09-28T06:40:36.316Z,4.28
2022-09-28T06:43:23.109Z,3.50
2022-09-28T06:46:27.902Z,3.83
2022-09-28T06:49:32.687Z,4.28
2022-09-28T06:52:45.015Z,3.40
2022-09-28T06:55:49.788Z,4.10
2022-09-28T06:58:40.638Z,4.05
2022-09-28T07:01:27.529Z,4.15
2022-09-28T07:04:21.593Z,5.05
2022-09-28T07:07:47.946Z,4.47
2022-09-28T07:10:48.525Z,3.58
2022-09-28T07:14:01.300Z,4.75
2022-09-28T07:17:11.703Z,4.03
2022-09-28T07:20:00.021Z,4.00
2022-09-28T07:22:53.786Z,3.63
2022-09-28T07:25:45.468Z,4.75
2022-09-28T07:28:52.214Z,4.55
2022-09-28T07:31:56.944Z,4.82
2022-09-28T07:35:22.288Z,4.60
2022-09-28T07:38:41.605Z,4.63
2022-09-28T07:41:35.520Z,4.90
2022-09-28T07:44:25.912Z,4.38
2022-09-28T07:47:14.492Z,4.85
2022-09-28T07:50:24.903Z,4.35
2022-09-28T07:53:31.657Z,4.47
2022-09-28T07:56:48.023Z,4.55
2022-09-28T08:00:33.951Z,4.38
2022-09-28T08:03:25.560Z,4.57
2022-09-28T08:06:13.912Z,4.65
2022-09-28T08:09:01.726Z,4.80
2022-09-28T08:12:07.805Z,4.07
2022-09-28T08:15:10.443Z,4.50
2022-09-28T08:18:11.665Z,4.60
2022-09-28T08:21:16.891Z,4.88
2022-09-28T08:24:03.394Z,5.90
2022-09-28T08:26:49.792Z,5.13
2022-09-28T08:29:37.253Z,4.68
2022-09-28T08:32:49.341Z,5.30
2022-09-28T08:35:59.842Z,5.85
2022-09-28T08:39:06.479Z,5.68
2022-09-28T08:42:35.600Z,5.50
2022-09-28T08:45:40.154Z,5.68
2022-09-28T08:49:31.785Z,5.18
2022-09-28T08:52:44.230Z,5.55
2022-09-28T08:55:55.073Z,5.20
2022-09-28T08:58:49.036Z,5.63
2022-09-28T09:01:40.576Z,5.25
2022-09-28T09:04:33.743Z,5.90
2022-09-28T09:07:55.984Z,5.47
2022-09-28T09:11:00.031Z,5.65
2022-09-28T09:13:56.303Z,5.32
2022-09-28T09:17:24.615Z,5.60
2022-09-28T09:20:38.326Z,5.22
2022-09-28T09:23:34.779Z,4.68
2022-09-28T09:26:32.546Z,5.93
2022-09-28T09:29:38.685Z,5.13
2022-09-28T09:32:57.508Z,5.82
2022-09-28T09:36:22.044Z,5.40
2022-09-28T09:39:53.429Z,5.18
2022-09-28T09:43:28.046Z,6.05
2022-09-28T09:46:58.752Z,5.38
2022-09-28T09:50:32.061Z,6.10
2022-09-28T09:53:44.894Z,5.20
2022-09-28T09:56:43.907Z,5.07
2022-09-28T09:59:42.044Z,4.72
2022-09-28T10:02:40.058Z,5.72
2022-09-28T10:05:43.697Z,4.57
2022-09-28T10:08:36.357Z,6.68
2022-09-28T10:11:36.470Z,4.38
2022-09-28T10:14:25.567Z,4.68
2022-09-28T10:17:26.613Z,3.35
2022-09-28T10:20:34.560Z,3.20
2022-09-28T10:23:44.607Z,3.63
2022-09-28T10:26:39.792Z,3.92
2022-09-28T10:29:41.407Z,3.38
2022-09-28T10:32:46.040Z,3.30
2022-09-28T10:38:30.964Z,2.47
2022-09-28T10:41:26.068Z,2.10
2022-09-28T10:44:20.876Z,2.28
2022-09-28T10:47:28.422Z,1.98
2022-09-28T10:50:21.768Z,1.98
2022-09-28T10:53:20.716Z,2.72
2022-09-28T10:56:37.433Z,2.15
2022-09-28T10:59:30.534Z,2.70
2022-09-28T11:02:41.153Z,1.60
2022-09-28T11:05:33.060Z,1.80
2022-09-28T11:08:26.412Z,1.85
2022-09-28T11:11:14.817Z,1.98
2022-09-28T11:14:03.720Z,1.40
2022-09-28T11:17:17.362Z,1.40
2022-09-28T11:20:28.233Z,1.48
2022-09-28T11:23:31.056Z,1.38
2022-09-28T11:26:26.220Z,1.40
2022-09-28T11:29:34.600Z,1.80
2022-09-28T11:32:45.304Z,1.55
2022-09-28T11:36:11.999Z,1.58
2022-09-28T11:38:58.045Z,1.92
2022-09-28T11:42:07.112Z,1.90
2022-09-28T11:45:26.112Z,1.52
2022-09-28T11:48:22.995Z,1.45
2022-09-28T11:51:19.440Z,1.55
2022-09-28T11:54:18.698Z,1.70
2022-09-28T11:57:14.909Z,2.08
2022-09-28T12:00:15.483Z,1.90
2022-09-28T12:03:33.825Z,1.67
2022-09-28T12:06:31.364Z,1.70
2022-09-28T12:09:50.035Z,1.73
2022-09-28T12:12:41.284Z,1.42
2022-09-28T12:19:20.303Z,2.00
2022-09-28T12:22:18.194Z,1.50
2022-09-28T12:25:10.213Z,1.58
2022-09-28T12:28:05.572Z,1.40
2022-09-28T12:30:54.143Z,1.58
2022-09-28T12:33:45.510Z,1.90
2022-09-28T12:37:01.528Z,1.90
2022-09-28T12:40:07.032Z,2.00
2022-09-28T12:43:29.038Z,1.27
2022-09-28T12:46:24.071Z,1.92
2022-09-28T12:53:02.342Z,1.80
2022-09-28T12:56:06.314Z,1.50
2022-09-28T12:59:14.829Z,1.55
2022-09-28T13:02:38.330Z,2.05
2022-09-28T13:05:43.902Z,2.03
2022-09-28T13:08:33.568Z,1.20
2022-09-28T13:11:37.697Z,1.67
2022-09-28T13:17:51.644Z,1.92
2022-09-28T13:20:53.321Z,2.00
2022-09-28T13:23:44.807Z,1.67
2022-09-28T13:26:56.645Z,1.67
2022-09-28T13:29:46.089Z,1.65
2022-09-28T13:32:34.047Z,1.80
2022-09-28T13:35:23.970Z,1.52
2022-09-28T13:38:16.297Z,1.40
2022-09-28T13:41:06.079Z,1.85
2022-09-28T13:44:17.788Z,1.95
2022-09-28T13:47:07.677Z,2.10
2022-09-28T13:50:16.007Z,1.67
2022-09-28T13:53:23.264Z,1.88
2022-09-28T13:56:21.279Z,1.75
2022-09-28T13:59:19.398Z,2.15
2022-09-28T14:02:17.897Z,1.83
2022-09-28T14:05:26.238Z,1.63
2022-09-28T14:08:33.568Z,1.85
2022-09-28T14:11:42.460Z,1.60
2022-09-28T14:14:56.527Z,1.52
2022-09-28T14:17:54.852Z,1.63
2022-09-28T14:20:54.950Z,1.45
2022-09-28T14:24:00.017Z,1.40
2022-09-28T14:26:52.438Z,1.40
2022-09-28T14:29:39.754Z,1.50
2022-09-28T14:32:36.430Z,1.50
2022-09-28T14:35:42.679Z,1.55
2022-09-28T14:38:56.037Z,1.75
2022-09-28T14:41:47.376Z,1.40
2022-09-28T14:45:06.171Z,1.52
2022-09-28T14:48:13.917Z,1.25
2022-09-28T14:51:30.218Z,1.70
2022-09-28T14:54:21.955Z,1.40
2022-09-28T14:57:17.597Z,1.13
2022-09-28T15:00:14.946Z,1.35
2022-09-28T15:03:07.790Z,1.52
2022-09-28T15:05:56.414Z,1.48
2022-09-28T15:08:42.819Z,1.52
2022-09-28T15:11:28.997Z,1.67
2022-09-28T15:14:15.366Z,1.30
2022-09-28T15:17:09.896Z,1.50
2022-09-28T15:22:58.410Z,1.75
2022-09-28T15:25:52.733Z,1.38
2022-09-28T15:28:45.259Z,1.20
2022-09-28T15:31:35.630Z,1.70
2022-09-28T15:34:47.139Z,1.30
2022-09-28T15:37:39.648Z,1.45
2022-09-28T15:40:29.761Z,1.63
2022-09-28T15:43:32.858Z,2.15
2022-09-28T15:46:29.480Z,2.00
2022-09-28T15:50:20.819Z,1.55
2022-09-28T15:53:14.864Z,1.50
2022-09-28T15:59:15.387Z,1.48
2022-09-28T16:02:34.034Z,1.48
2022-09-28T16:05:35.856Z,1.70
2022-09-28T16:08:32.901Z,1.60
2022-09-28T16:11:21.550Z,1.45
2022-09-28T16:14:18.490Z,1.17
2022-09-28T16:17:05.519Z,1.60
2022-09-28T16:19:54.999Z,1.70
2022-09-28T16:22:43.346Z,1.40
2022-09-28T16:25:32.001Z,1.65
2022-09-28T16:28:34.651Z,1.90
2022-09-28T16:31:23.880Z,1.52
2022-09-28T16:34:19.925Z,1.98
2022-09-28T16:37:31.805Z,2.05
2022-09-28T16:40:17.992Z,2.22
2022-09-28T16:43:08.527Z,1.50
2022-09-28T16:46:00.956Z,1.92
2022-09-28T16:48:50.100Z,1.50
2022-09-28T16:51:40.135Z,1.83
2022-09-28T16:54:44.820Z,1.70
2022-09-28T16:57:36.322Z,1.95
2022-09-28T17:00:27.270Z,2.30
2022-09-28T17:03:22.784Z,3.30
2022-09-28T17:06:11.510Z,2.10
2022-09-28T17:08:59.108Z,5.60
2022-09-28T17:11:45.165Z,2.78
2022-09-28T17:14:32.770Z,2.75
2022-09-28T17:17:19.131Z,2.30
2022-09-28T17:20:21.375Z,2.53
2022-09-28T17:23:12.874Z,2.33
2022-09-28T17:25:59.491Z,1.77
2022-09-28T17:28:45.907Z,1.83
2022-09-28T17:31:31.971Z,2.35
2022-09-28T17:34:17.983Z,4.43
2022-09-28T17:37:06.813Z,4.20
2022-09-28T17:39:52.447Z,4.75
2022-09-28T17:42:38.406Z,3.60
2022-09-28T17:45:28.399Z,2.67
2022-09-28T17:48:17.108Z,3.25
2022-09-28T17:51:03.725Z,2.75
2022-09-28T17:53:49.824Z,2.95
2022-09-28T17:56:36.375Z,2.70
2022-09-28T17:59:22.217Z,2.45
2022-09-28T18:02:11.579Z,2.60
2022-09-28T18:04:58.188Z,4.03
2022-09-28T18:07:47.686Z,3.53
2022-09-28T18:10:33.793Z,3.50
2022-09-28T18:13:19.851Z,3.25
2022-09-28T18:16:06.234Z,4.03
2022-09-28T18:18:54.037Z,3.95
2022-09-28T18:21:39.996Z,5.00
2022-09-28T18:24:26.012Z,5.30
2022-09-28T18:27:12.074Z,5.35
2022-09-28T18:29:58.001Z,6.22
2022-09-28T18:32:44.160Z,5.28
2022-09-28T18:35:30.144Z,4.82
2022-09-28T18:38:16.281Z,4.20
2022-09-28T18:41:16.638Z,3.45
2022-09-28T18:44:02.933Z,4.10
2022-09-28T18:46:49.043Z,3.53
2022-09-28T18:49:38.228Z,3.75
2022-09-28T18:52:24.630Z,3.53
2022-09-28T18:55:12.000Z,3.92
2022-09-28T18:57:57.904Z,4.03
2022-09-28T19:00:44.074Z,3.55
2022-09-28T19:03:30.864Z,3.67
2022-09-28T19:06:16.948Z,3.30
2022-09-28T19:09:02.957Z,3.55
2022-09-28T19:11:49.408Z,3.38
2022-09-28T19:14:35.520Z,3.78
2022-09-28T19:17:21.517Z,3.42
2022-09-28T19:20:08.127Z,3.60
2022-09-28T19:22:54.115Z,3.42
2022-09-28T19:25:41.969Z,3.70
2022-09-28T19:28:28.661Z,3.72
2022-09-28T19:31:15.366Z,4.07
2022-09-28T19:34:01.506Z,4.47
2022-09-28T19:36:48.157Z,5.35
2022-09-28T19:39:34.778Z,5.50
2022-09-28T19:42:21.171Z,5.47
2022-09-28T19:45:10.244Z,4.13
2022-09-28T19:47:59.562Z,4.15
2022-09-28T19:50:58.814Z,4.22
2022-09-28T19:53:44.874Z,4.70
2022-09-28T19:56:35.209Z,4.35
2022-09-28T19:59:22.059Z,4.45
2022-09-28T20:02:10.288Z,4.18
2022-09-28T20:04:56.720Z,3.85
2022-09-28T20:07:46.204Z,4.07
2022-09-28T20:10:33.156Z,4.82
2022-09-28T20:13:24.543Z,4.68
2022-09-28T20:16:14.621Z,4.63
2022-09-28T20:19:03.958Z,4.18
2022-09-28T20:21:50.381Z,4.57
2022-09-28T20:24:36.732Z,4.50
2022-09-28T20:27:27.343Z,4.15
2022-09-28T20:30:13.917Z,4.60
2022-09-28T20:33:00.135Z,4.07
2022-09-28T20:35:49.419Z,4.35
2022-09-28T20:38:40.387Z,3.97
2022-09-28T20:41:27.547Z,3.85
2022-09-28T20:44:14.027Z,4.38
2022-09-28T20:47:01.108Z,3.85
2022-09-28T20:49:47.777Z,4.40
2022-09-28T20:52:33.851Z,3.95
2022-09-28T20:55:19.736Z,3.63
2022-09-28T20:58:05.729Z,4.45
2022-09-28T21:00:51.682Z,4.57
2022-09-28T21:03:40.056Z,4.40
2022-09-28T21:06:39.178Z,4.82
2022-09-28T21:09:25.199Z,4.68
2022-09-28T21:12:11.109Z,3.65
2022-09-28T21:14:58.807Z,4.15
2022-09-28T21:17:47.485Z,3.88
2022-09-28T21:20:33.888Z,3.88
2022-09-28T21:23:24.957Z,4.22
2022-09-28T21:26:14.481Z,3.75
2022-09-28T21:29:03.325Z,4.35
2022-09-28T21:31:49.871Z,4.55
2022-09-28T21:34:35.972Z,4.20
2022-09-28T21:37:25.760Z,4.47
2022-09-28T21:40:12.178Z,4.38
2022-09-28T21:42:58.598Z,3.97
2022-09-28T21:45:48.400Z,4.35
2022-09-28T21:48:34.756Z,5.18
2022-09-28T21:51:21.178Z,4.25
2022-09-28T21:54:07.444Z,4.18
2022-09-28T21:56:53.465Z,4.25
2022-09-28T21:59:39.624Z,3.90
2022-09-28T22:02:25.640Z,4.20
2022-09-28T22:05:13.474Z,4.07
2022-09-28T22:07:59.581Z,4.25
2022-09-28T22:10:45.619Z,4.03
2022-09-28T22:13:36.522Z,3.72
2022-09-28T22:16:24.629Z,3.45
2022-09-28T22:19:10.418Z,4.28
2022-09-28T22:21:56.712Z,4.80
2022-09-28T22:24:42.630Z,4.75
2022-09-28T22:27:31.720Z,4.05
2022-09-28T22:30:18.228Z,4.45
2022-09-28T22:33:23.398Z,3.75
2022-09-28T22:36:10.133Z,3.67
2022-09-28T22:38:57.739Z,4.57
2022-09-28T22:41:43.858Z,3.75
2022-09-28T22:44:30.192Z,4.85
2022-09-28T22:47:18.011Z,4.38
2022-09-28T22:50:04.879Z,3.30
2022-09-28T22:52:51.057Z,4.55
2022-09-28T22:55:36.943Z,3.10
2022-09-28T22:58:23.751Z,4.13
2022-09-28T23:01:28.271Z,3.75
2022-09-28T23:04:14.111Z,4.00
2022-09-28T23:07:00.417Z,3.85
2022-09-28T23:09:46.864Z,3.80
2022-09-28T23:12:35.614Z,4.55
2022-09-28T23:15:22.346Z,3.25
2022-09-28T23:18:08.791Z,3.42
2022-09-28T23:20:56.039Z,3.47
2022-09-28T23:23:49.593Z,4.38
2022-09-28T23:26:36.900Z,4.20
2022-09-28T23:29:23.636Z,3.83
2022-09-28T23:32:09.832Z,4.10
2022-09-28T23:34:56.875Z,4.07
2022-09-28T23:37:43.030Z,4.55
2022-09-28T23:40:29.258Z,3.70
2022-09-28T23:43:15.557Z,4.18
2022-09-28T23:46:02.552Z,3.40
2022-09-28T23:48:49.412Z,4.35
2022-09-28T23:51:35.686Z,4.15
2022-09-28T23:54:22.028Z,3.78
2022-09-28T23:57:07.874Z,3.58
2022-09-28T23:59:53.627Z,3.75
